Time;durP1;ratioP1;P1;durP2;ratioP2;P2;SDS_P1;SDS_P2;PMS_P1;PMS_P2;Temp;Humidity;BMP_temperature;BMP_pressure;BME280_temperature;BME280_humidity;BME280_pressure;Samples;Min_cycle;Max_cycle;Signal;HPM_P1;HPM_P2
2022/10/20 12:00:24;;;;;;;10.48;7.25;;;12.30;96.70;;;;;;6302784;22;160671;-82
2022/10/20 12:03:06;;;;;;;10.10;7.22;;;12.30;96.50;;;;;;6263819;22;20026;-81
2022/10/20 12:05:54;;;;;;;11.38;7.20;;;12.30;96.60;;;;;;6273502;22;20008;-82
2022/10/20 12:08:49;;;;;;;12.95;7.65;;;12.40;96.50;;;;;;6273274;22;20442;-81
2022/10/20 12:11:27;;;;;;;12.55;7.78;;;12.40;96.50;;;;;;6274212;22;20508;-81
2022/10/20 12:14:10;;;;;;;11.55;7.47;;;12.40;97.00;;;;;;6273116;22;20019;-82
2022/10/20 12:17:01;;;;;;;9.50;6.80;;;12.40;96.60;;;;;;6271446;22;20016;-81
2022/10/20 12:19:32;;;;;;;11.32;7.45;;;12.50;96.60;;;;;;6218239;22;20051;-82
2022/10/20 12:22:04;;;;;;;11.90;7.10;;;12.50;96.80;;;;;;6276264;22;20019;-82
2022/10/20 12:24:32;;;;;;;9.95;7.50;;;12.50;96.80;;;;;;6273912;22;20346;-82
2022/10/20 12:27:04;;;;;;;10.32;7.13;;;12.50;96.90;;;;;;6271527;22;20012;-82
2022/10/20 12:29:29;;;;;;;11.50;8.27;;;12.60;97.00;;;;;;6274124;22;20018;-83
2022/10/20 12:32:20;;;;;;;10.95;7.60;;;12.50;97.10;;;;;;6270564;22;20351;-83
2022/10/20 12:34:47;;;;;;;12.70;8.23;;;12.60;97.10;;;;;;6273607;22;20342;-82
2022/10/20 12:37:18;;;;;;;12.63;8.50;;;12.50;97.30;;;;;;6276384;22;20071;-83
2022/10/20 12:39:45;;;;;;;12.45;8.15;;;12.50;97.40;;;;;;6272477;22;20012;-83
2022/10/20 12:42:30;;;;;;;11.57;7.80;;;12.60;97.60;;;;;;6273311;22;20016;-82
2022/10/20 12:45:06;;;;;;;12.52;7.90;;;12.50;97.50;;;;;;6271916;22;20016;-82
2022/10/20 12:47:34;;;;;;;11.90;7.90;;;12.50;97.70;;;;;;6273305;22;20015;-85
2022/10/20 12:50:25;;;;;;;14.00;8.63;;;12.60;97.80;;;;;;6273902;22;20022;-85
2022/10/20 12:52:51;;;;;;;12.75;8.70;;;12.50;97.80;;;;;;6273887;22;20019;-83
2022/10/20 12:55:29;;;;;;;10.90;8.40;;;12.50;98.10;;;;;;6272341;22;20014;-84
2022/10/20 12:58:31;;;;;;;12.80;8.85;;;12.50;98.10;;;;;;6275872;22;20012;-84
2022/10/20 13:00:57;;;;;;;11.55;8.75;;;12.50;98.10;;;;;;6126053;23;20045;-82
2022/10/20 13:03:45;;;;;;;14.73;9.10;;;12.50;98.30;;;;;;6250084;22;20061;-83
2022/10/20 13:06:23;;;;;;;13.73;8.30;;;12.50;98.30;;;;;;6272563;22;20473;-83
2022/10/20 13:09:04;;;;;;;14.15;8.98;;;12.50;98.40;;;;;;6271667;22;20019;-83
2022/10/20 13:11:43;;;;;;;11.55;8.27;;;12.50;98.40;;;;;;6274146;22;20023;-83
2022/10/20 13:14:12;;;;;;;15.10;9.95;;;12.50;98.50;;;;;;6273792;22;20410;-83
2022/10/20 13:16:50;;;;;;;12.95;8.80;;;12.50;98.70;;;;;;6274081;22;20012;-83
2022/10/20 13:19:22;;;;;;;13.93;9.30;;;12.50;98.80;;;;;;6271846;22;20058;-83
2022/10/20 13:21:49;;;;;;;10.95;8.70;;;12.50;98.90;;;;;;6272696;22;20008;-83
2022/10/20 13:24:15;;;;;;;11.70;9.13;;;12.50;98.90;;;;;;6272213;22;20011;-83
2022/10/20 13:26:51;;;;;;;12.50;9.32;;;12.50;98.90;;;;;;6274225;22;20015;-83
2022/10/20 13:29:42;;;;;;;12.85;9.60;;;12.50;99.10;;;;;;6274689;22;20011;-83
2022/10/20 13:32:21;;;;;;;14.20;9.93;;;12.50;99.00;;;;;;6259624;22;20455;-83
2022/10/20 13:34:46;;;;;;;13.77;9.63;;;12.50;99.70;;;;;;6273447;22;20447;-82
2022/10/20 13:37:27;;;;;;;12.75;9.27;;;12.50;99.40;;;;;;6272038;22;20019;-83
2022/10/20 13:40:02;;;;;;;13.90;9.23;;;12.50;99.50;;;;;;6274018;22;20016;-83
2022/10/20 13:43:08;;;;;;;14.77;9.90;;;12.60;99.50;;;;;;6275104;22;20094;-83
2022/10/20 13:45:48;;;;;;;18.17;9.63;;;12.50;99.50;;;;;;6273106;22;20094;-83
2022/10/20 13:48:35;;;;;;;12.50;9.25;;;12.50;99.50;;;;;;6269090;22;20019;-82
2022/10/20 13:51:06;;;;;;;14.23;10.48;;;12.50;99.60;;;;;;6270424;22;20051;-84
2022/10/20 13:53:36;;;;;;;12.90;9.90;;;12.50;99.90;;;;;;6273760;22;20050;-83
2022/10/20 13:56:14;;;;;;;15.23;10.75;;;12.50;99.80;;;;;;6272744;22;20012;-83
2022/10/20 13:58:40;;;;;;;14.93;10.40;;;12.50;99.90;;;;;;6267828;22;20350;-81
2022/10/20 14:01:15;;;;;;;14.20;10.70;;;12.50;99.90;;;;;;6269717;22;20007;-82
2022/10/20 14:03:44;;;;;;;14.40;10.18;;;12.50;99.90;;;;;;6270993;22;20102;-82
2022/10/20 14:06:34;;;;;;;12.38;8.82;;;12.50;99.90;;;;;;6269148;22;20016;-82
2022/10/20 14:09:15;;;;;;;13.63;10.63;;;12.50;99.90;;;;;;6254483;22;20447;-82
2022/10/20 14:11:46;;;;;;;11.98;8.82;;;12.50;99.90;;;;;;6275416;22;20016;-82
2022/10/20 14:14:19;;;;;;;14.07;9.68;;;12.50;99.90;;;;;;6275460;22;20023;-82
2022/10/20 14:17:01;;;;;;;16.95;11.80;;;12.50;99.90;;;;;;6277020;22;20088;-82
2022/10/20 14:19:29;;;;;;;14.85;10.02;;;12.50;99.90;;;;;;6275661;22;20510;-82
2022/10/20 14:21:57;;;;;;;14.50;11.20;;;12.50;99.90;;;;;;6274763;22;20012;-82
2022/10/20 14:24:30;;;;;;;13.63;9.85;;;12.50;99.90;;;;;;6275964;22;20344;-81
2022/10/20 14:26:58;;;;;;;12.73;10.52;;;12.50;99.90;;;;;;6275588;22;20011;-81
2022/10/20 14:29:27;;;;;;;18.00;11.43;;;12.50;99.90;;;;;;6277148;22;20070;-81
2022/10/20 14:31:53;;;;;;;11.52;9.40;;;12.50;99.90;;;;;;6275288;22;20065;-81
2022/10/20 14:34:23;;;;;;;16.02;12.68;;;12.50;99.90;;;;;;6274818;22;20473;-82
2022/10/20 14:36:50;;;;;;;18.67;13.65;;;12.50;99.90;;;;;;6276418;22;20007;-81
2022/10/20 14:39:41;;;;;;;16.20;12.48;;;12.50;99.90;;;;;;6276767;22;20047;-81
2022/10/20 14:42:22;;;;;;;15.88;11.98;;;12.50;99.90;;;;;;6272945;22;20030;-83
2022/10/20 14:44:50;;;;;;;19.50;12.50;;;12.50;99.90;;;;;;6275628;22;20118;-84
2022/10/20 14:47:17;;;;;;;15.52;10.65;;;12.50;99.90;;;;;;6273147;22;20509;-83
2022/10/20 14:49:47;;;;;;;16.90;12.10;;;12.50;99.90;;;;;;6277260;22;20022;-82
2022/10/20 14:52:16;;;;;;;14.10;10.68;;;12.60;99.90;;;;;;6273812;22;20073;-82
2022/10/20 14:54:42;;;;;;;13.32;10.73;;;12.50;99.90;;;;;;6272112;22;20061;-82
2022/10/20 14:57:07;;;;;;;13.45;10.43;;;12.50;99.90;;;;;;6276021;22;20022;-82
2022/10/20 14:59:38;;;;;;;16.05;12.00;;;12.50;99.90;;;;;;6276259;22;20102;-82
2022/10/20 15:02:11;;;;;;;17.35;12.88;;;12.60;99.90;;;;;;6276423;22;20045;-83
2022/10/20 15:04:42;;;;;;;16.77;13.03;;;12.50;99.90;;;;;;6277394;22;20137;-83
2022/10/20 15:07:37;;;;;;;16.52;13.75;;;12.60;99.90;;;;;;6274699;22;20343;-84
2022/10/20 15:10:07;;;;;;;16.58;13.52;;;12.60;99.90;;;;;;6241826;22;20012;-84
2022/10/20 15:12:41;;;;;;;18.23;13.45;;;12.60;99.90;;;;;;6275563;22;20099;-82
2022/10/20 15:15:10;;;;;;;18.25;12.70;;;12.60;99.90;;;;;;6275013;22;20018;-84
2022/10/20 15:17:38;;;;;;;19.08;13.05;;;12.70;99.90;;;;;;6282956;22;20051;-83
2022/10/20 15:20:31;;;;;;;19.80;13.00;;;12.60;99.90;;;;;;6283426;22;20058;-83
2022/10/20 15:29:21;;;;;;;21.75;15.20;;;12.60;99.90;;;;;;6297276;22;20047;-89
2022/10/20 15:32:16;;;;;;;19.50;14.50;;;12.60;99.90;;;;;;6311322;22;20015;-90
2022/10/20 15:34:44;;;;;;;18.67;13.45;;;12.70;99.90;;;;;;6201578;22;20521;-83
2022/10/20 15:37:25;;;;;;;18.20;13.98;;;12.70;99.90;;;;;;6309765;22;20078;-82
2022/10/20 15:40:04;;;;;;;21.50;15.10;;;12.70;99.90;;;;;;6339382;22;20050;-83
2022/10/20 15:42:35;;;;;;;20.45;14.45;;;12.70;99.90;;;;;;6310705;22;20405;-84
2022/10/20 15:45:01;;;;;;;20.48;14.57;;;12.70;99.90;;;;;;6310682;22;20018;-82
2022/10/20 15:47:26;;;;;;;18.88;15.32;;;12.80;99.90;;;;;;6311052;22;20017;-82
2022/10/20 15:49:52;;;;;;;16.83;13.95;;;12.70;99.90;;;;;;6339413;22;20437;-82
2022/10/20 15:52:18;;;;;;;19.17;14.15;;;12.80;99.90;;;;;;6309873;22;20018;-82
2022/10/20 15:54:43;;;;;;;15.75;13.43;;;12.80;99.90;;;;;;6339165;22;20085;-83
2022/10/20 15:57:09;;;;;;;20.92;15.20;;;12.80;99.90;;;;;;6309075;22;20335;-82
2022/10/20 15:59:34;;;;;;;16.50;13.43;;;12.80;99.90;;;;;;6337947;22;20010;-83
2022/10/20 16:02:00;;;;;;;17.63;14.18;;;12.80;99.90;;;;;;6310833;22;20294;-82
2022/10/20 16:04:26;;;;;;;24.38;16.10;;;12.90;99.90;;;;;;6309546;22;20022;-82
2022/10/20 16:06:53;;;;;;;22.35;16.10;;;12.90;99.90;;;;;;6338670;22;20022;-83
2022/10/20 16:09:20;;;;;;;19.00;15.50;;;12.90;99.90;;;;;;6338777;22;20011;-82
2022/10/20 16:11:45;;;;;;;22.23;16.98;;;12.90;99.90;;;;;;6338296;22;20046;-83
2022/10/20 16:14:14;;;;;;;22.75;15.65;;;13.00;99.90;;;;;;6338867;22;20384;-83
2022/10/20 16:16:40;;;;;;;22.25;15.85;;;12.90;99.90;;;;;;6310636;22;20469;-82
2022/10/20 16:19:06;;;;;;;21.30;17.00;;;12.90;99.90;;;;;;6338088;22;20049;-83
2022/10/20 16:21:32;;;;;;;20.73;15.55;;;13.00;99.90;;;;;;6339153;22;20014;-82
2022/10/20 16:23:59;;;;;;;22.55;15.70;;;13.00;99.90;;;;;;6339183;22;20340;-82
2022/10/20 16:26:26;;;;;;;21.02;14.63;;;13.00;99.90;;;;;;6337667;22;20011;-82
2022/10/20 16:28:51;;;;;;;18.98;15.02;;;13.00;99.90;;;;;;6338497;22;20018;-82
2022/10/20 16:31:18;;;;;;;21.42;15.80;;;13.00;99.90;;;;;;6310602;22;20026;-82
2022/10/20 16:33:44;;;;;;;20.42;16.38;;;13.00;99.90;;;;;;6310018;22;20015;-84
2022/10/20 16:36:12;;;;;;;28.35;15.90;;;13.00;99.90;;;;;;6310333;22;20504;-83
2022/10/20 16:38:38;;;;;;;24.38;16.80;;;13.00;99.90;;;;;;6338778;22;20011;-83
2022/10/20 16:41:06;;;;;;;19.77;14.55;;;13.10;99.90;;;;;;6337825;22;20375;-83
2022/10/20 16:43:36;;;;;;;20.05;14.43;;;13.10;99.90;;;;;;6338840;22;20017;-83
2022/10/20 16:46:07;;;;;;;18.20;15.68;;;13.00;99.90;;;;;;6310398;22;20018;-83
2022/10/20 16:48:33;;;;;;;18.23;14.52;;;13.10;99.90;;;;;;6309889;22;20015;-83
2022/10/20 16:50:58;;;;;;;22.25;16.75;;;13.10;99.90;;;;;;6338029;22;20011;-83
2022/10/20 16:53:24;;;;;;;20.50;15.43;;;13.10;99.90;;;;;;6310627;22;20017;-83
2022/10/20 16:55:54;;;;;;;20.95;15.10;;;13.10;99.90;;;;;;6337737;22;20085;-83
2022/10/20 16:58:21;;;;;;;18.05;13.68;;;13.10;99.90;;;;;;6338109;22;20011;-82
2022/10/20 17:00:58;;;;;;;17.17;14.60;;;13.10;99.90;;;;;;6309220;22;20022;-85
2022/10/20 17:03:23;;;;;;;16.92;13.45;;;13.10;99.90;;;;;;6309575;22;20015;-83
2022/10/20 17:05:55;;;;;;;20.20;15.30;;;13.10;99.90;;;;;;6309737;22;20098;-83
2022/10/20 17:08:21;;;;;;;22.65;16.02;;;13.10;99.90;;;;;;6308911;22;20019;-83
2022/10/20 17:10:46;;;;;;;22.27;15.65;;;13.10;99.90;;;;;;6308001;22;20021;-82
2022/10/20 17:13:12;;;;;;;23.60;17.40;;;13.10;99.90;;;;;;6309453;22;20105;-83
2022/10/20 17:15:38;;;;;;;21.73;16.65;;;13.10;99.90;;;;;;6336754;22;20319;-82
2022/10/20 17:18:03;;;;;;;23.02;16.48;;;13.20;99.90;;;;;;6338616;22;20044;-82
2022/10/20 17:20:29;;;;;;;25.55;17.40;;;13.20;99.90;;;;;;6337854;22;20006;-82
2022/10/20 17:22:54;;;;;;;24.20;16.42;;;13.30;99.90;;;;;;6337070;22;20102;-82
2022/10/20 17:25:20;;;;;;;18.02;14.50;;;13.20;99.90;;;;;;6310095;22;20018;-83
2022/10/20 17:27:45;;;;;;;18.90;13.65;;;13.20;99.90;;;;;;6308846;22;20023;-82
2022/10/20 17:30:12;;;;;;;21.30;16.80;;;13.20;99.90;;;;;;6307704;22;20021;-82
2022/10/20 17:32:38;;;;;;;20.02;15.07;;;13.20;99.90;;;;;;6309806;22;20019;-82
2022/10/20 17:35:04;;;;;;;22.90;17.40;;;13.20;99.90;;;;;;6338373;22;20018;-82
2022/10/20 17:37:30;;;;;;;24.55;16.00;;;13.20;99.90;;;;;;6336874;22;20540;-82
2022/10/20 17:39:55;;;;;;;20.45;15.88;;;13.20;99.90;;;;;;6309907;22;20046;-82
2022/10/20 17:42:21;;;;;;;20.05;16.08;;;13.30;99.90;;;;;;6309694;22;20109;-82
2022/10/20 17:44:46;;;;;;;25.15;18.00;;;13.30;99.90;;;;;;6309921;22;20015;-82
2022/10/20 17:47:12;;;;;;;24.77;17.98;;;13.30;99.90;;;;;;6311886;22;20034;-82
2022/10/20 17:49:38;;;;;;;21.42;16.67;;;13.30;99.90;;;;;;6340013;22;20050;-82
2022/10/20 17:52:03;;;;;;;23.52;17.02;;;13.30;99.90;;;;;;6339347;22;20040;-82
2022/10/20 17:54:29;;;;;;;24.17;17.92;;;13.30;99.90;;;;;;6340189;22;20014;-82
2022/10/20 17:56:54;;;;;;;23.98;16.42;;;13.30;99.90;;;;;;6340056;22;20011;-83
2022/10/20 17:59:20;;;;;;;18.00;13.50;;;13.30;99.90;;;;;;6337423;22;20454;-84
2022/10/20 18:01:45;;;;;;;24.42;17.20;;;13.30;99.90;;;;;;6310836;22;20311;-83
2022/10/20 18:04:14;;;;;;;20.80;14.00;;;13.40;99.90;;;;;;6309662;22;20468;-82
2022/10/20 18:06:40;;;;;;;22.33;16.40;;;13.30;99.90;;;;;;6311224;22;20015;-83
2022/10/20 18:09:09;;;;;;;27.58;17.90;;;13.40;99.90;;;;;;6312433;22;20015;-83
2022/10/20 18:11:36;;;;;;;20.63;16.33;;;13.40;99.90;;;;;;6339095;22;20007;-83
2022/10/20 18:14:02;;;;;;;23.05;18.23;;;13.40;99.90;;;;;;6339343;22;20015;-84
2022/10/20 18:16:31;;;;;;;21.38;16.02;;;13.40;99.90;;;;;;6340042;22;20019;-82
2022/10/20 18:18:57;;;;;;;23.17;16.30;;;13.40;99.90;;;;;;6310955;22;20018;-84
2022/10/20 18:21:24;;;;;;;23.60;17.77;;;13.40;99.90;;;;;;6312313;22;20038;-83
2022/10/20 18:23:58;;;;;;;20.73;16.52;;;13.40;99.90;;;;;;6312263;22;20011;-83
2022/10/20 18:26:24;;;;;;;22.35;18.80;;;13.40;99.90;;;;;;6311406;22;20446;-84
2022/10/20 18:28:50;;;;;;;23.58;17.45;;;13.40;99.90;;;;;;6311901;22;20071;-82
2022/10/20 18:31:21;;;;;;;21.10;16.58;;;13.40;99.90;;;;;;6311654;22;20019;-83
2022/10/20 18:33:49;;;;;;;26.58;20.13;;;13.40;99.90;;;;;;6311141;22;20381;-83
2022/10/20 18:36:16;;;;;;;28.55;18.38;;;13.40;99.90;;;;;;6311455;22;20010;-82
2022/10/20 18:38:44;;;;;;;26.05;17.98;;;13.40;99.90;;;;;;6311901;22;20011;-82
2022/10/20 18:41:21;;;;;;;24.35;18.25;;;13.40;99.90;;;;;;6340256;22;20042;-82
2022/10/20 18:43:54;;;;;;;24.95;17.70;;;13.40;99.90;;;;;;6312050;22;20015;-83
2022/10/20 18:46:20;;;;;;;20.08;16.73;;;13.30;99.90;;;;;;6306239;22;20022;-83
2022/10/20 18:48:46;;;;;;;25.55;17.10;;;13.30;99.90;;;;;;6310078;22;20026;-84
2022/10/20 18:51:13;;;;;;;23.80;17.63;;;13.30;99.90;;;;;;6308707;22;20445;-83
2022/10/20 18:53:40;;;;;;;24.88;18.05;;;13.30;99.90;;;;;;6336617;22;20050;-83
2022/10/20 18:56:09;;;;;;;26.17;17.92;;;13.30;99.90;;;;;;6307347;22;20104;-84
2022/10/20 18:58:37;;;;;;;21.23;17.70;;;13.20;99.90;;;;;;6336211;22;20018;-85
2022/10/20 19:01:09;;;;;;;23.92;17.65;;;13.20;99.90;;;;;;6308993;22;20015;-83
2022/10/20 19:03:35;;;;;;;24.27;17.92;;;13.20;99.90;;;;;;6309143;22;20018;-83
2022/10/20 19:06:07;;;;;;;25.88;18.17;;;13.20;99.90;;;;;;6310356;22;20152;-85
2022/10/20 19:08:36;;;;;;;25.02;17.30;;;13.20;99.90;;;;;;6308621;22;20018;-84
2022/10/20 19:11:03;;;;;;;25.92;18.20;;;13.20;99.90;;;;;;6309785;22;20064;-85
2022/10/20 19:13:30;;;;;;;24.52;17.77;;;13.10;99.90;;;;;;6338276;22;20090;-83
2022/10/20 19:16:00;;;;;;;26.58;19.20;;;13.20;99.90;;;;;;6309365;22;20068;-84
2022/10/20 19:18:28;;;;;;;23.83;17.40;;;13.20;99.90;;;;;;6338113;22;20450;-84
2022/10/20 19:20:58;;;;;;;24.77;18.92;;;13.10;99.90;;;;;;6310323;22;20032;-84
2022/10/20 19:23:25;;;;;;;27.25;18.95;;;13.20;99.90;;;;;;6338500;22;20050;-84
2022/10/20 19:26:06;;;;;;;20.02;16.52;;;13.20;99.90;;;;;;6311414;22;20011;-84
2022/10/20 19:28:35;;;;;;;25.13;18.52;;;13.20;99.90;;;;;;6339238;22;20022;-84
2022/10/20 19:31:01;;;;;;;23.35;18.42;;;13.10;99.90;;;;;;6311861;22;20014;-85
2022/10/20 19:33:27;;;;;;;20.92;16.88;;;13.10;99.90;;;;;;6314603;22;20390;-84
2022/10/20 19:35:53;;;;;;;26.33;17.90;;;13.10;99.90;;;;;;6310290;22;20011;-84
2022/10/20 19:38:19;;;;;;;22.75;17.48;;;13.10;99.90;;;;;;6339092;22;20018;-84
2022/10/20 19:40:45;;;;;;;24.05;17.13;;;13.10;99.90;;;;;;6339113;22;20085;-84
2022/10/20 19:43:11;;;;;;;24.63;16.90;;;13.10;99.90;;;;;;6307303;22;20404;-84
2022/10/20 19:45:37;;;;;;;26.15;17.48;;;13.10;99.90;;;;;;6337634;22;20107;-84
2022/10/20 19:48:03;;;;;;;26.27;18.13;;;13.00;99.90;;;;;;6310734;22;20018;-84
2022/10/20 19:50:29;;;;;;;25.77;18.45;;;13.00;99.90;;;;;;6337862;22;20022;-84
2022/10/20 19:52:55;;;;;;;25.20;18.98;;;13.00;99.90;;;;;;6311521;22;20338;-84
2022/10/20 19:55:20;;;;;;;22.88;17.85;;;13.00;99.90;;;;;;6310876;22;20392;-84
2022/10/20 19:57:46;;;;;;;24.08;18.80;;;13.00;99.90;;;;;;6310402;22;20132;-83
2022/10/20 20:00:12;;;;;;;26.58;19.73;;;13.00;99.90;;;;;;6310731;22;20011;-85
2022/10/20 20:02:37;;;;;;;23.42;17.83;;;12.90;99.90;;;;;;6311228;22;20019;-85
2022/10/20 20:05:03;;;;;;;24.42;17.17;;;13.00;99.90;;;;;;6309660;22;20446;-85
2022/10/20 20:07:29;;;;;;;31.20;20.85;;;12.90;99.90;;;;;;6310248;22;20068;-85
2022/10/20 20:09:57;;;;;;;26.52;18.90;;;12.90;99.90;;;;;;6310460;22;20346;-85
2022/10/20 20:12:23;;;;;;;22.92;17.45;;;12.90;99.90;;;;;;6336924;22;20010;-83
2022/10/20 20:14:48;;;;;;;20.40;16.60;;;12.90;99.90;;;;;;6338508;22;20079;-84
2022/10/20 20:17:14;;;;;;;20.73;13.68;;;12.90;99.90;;;;;;6338847;22;20010;-85
2022/10/20 20:19:39;;;;;;;26.08;17.05;;;12.90;99.90;;;;;;6338118;22;20424;-85
2022/10/20 20:22:05;;;;;;;17.60;15.20;;;12.80;99.90;;;;;;6311107;22;20018;-85
2022/10/20 20:24:31;;;;;;;17.70;13.40;;;12.80;99.90;;;;;;6338023;22;20026;-84
2022/10/20 20:26:56;;;;;;;24.63;18.33;;;12.80;99.90;;;;;;6310200;22;20015;-84
2022/10/20 20:29:22;;;;;;;25.30;16.13;;;12.80;99.90;;;;;;6305092;22;20015;-84
2022/10/20 20:31:49;;;;;;;22.25;15.82;;;12.80;99.90;;;;;;6304833;22;20341;-84
2022/10/20 20:34:14;;;;;;;22.77;16.23;;;12.80;99.90;;;;;;6307321;22;20092;-85
2022/10/20 20:36:40;;;;;;;24.02;17.00;;;12.80;99.90;;;;;;6305363;22;20019;-85
2022/10/20 20:39:06;;;;;;;22.85;17.58;;;12.80;99.90;;;;;;6306379;22;20335;-85
2022/10/20 20:41:32;;;;;;;28.45;18.23;;;12.80;99.90;;;;;;6306955;22;20019;-85
2022/10/20 20:44:00;;;;;;;20.83;16.33;;;12.80;99.90;;;;;;6305242;22;20484;-85
2022/10/20 20:46:29;;;;;;;20.67;14.93;;;12.80;99.90;;;;;;6304161;22;20023;-84
2022/10/20 20:48:55;;;;;;;22.48;17.08;;;12.70;99.90;;;;;;6304451;22;20068;-85
2022/10/20 20:51:21;;;;;;;30.10;18.65;;;12.70;99.90;;;;;;6307082;22;20015;-85
2022/10/20 20:53:47;;;;;;;28.52;18.98;;;12.70;99.90;;;;;;6306374;22;20427;-84
2022/10/20 20:56:15;;;;;;;30.95;19.83;;;12.70;99.90;;;;;;6306241;22;20069;-84
2022/10/20 20:58:44;;;;;;;22.77;17.50;;;12.70;99.90;;;;;;6307169;22;20015;-86
2022/10/20 21:01:27;;;;;;;22.42;16.48;;;12.70;99.90;;;;;;6305810;22;20423;-85
2022/10/20 21:03:54;;;;;;;24.60;17.38;;;12.70;99.90;;;;;;6305445;22;20371;-86
2022/10/20 21:06:20;;;;;;;20.50;15.25;;;12.70;99.90;;;;;;6306919;22;20086;-83
2022/10/20 21:08:47;;;;;;;24.98;18.55;;;12.70;99.90;;;;;;6304705;22;20054;-85
2022/10/20 21:11:25;;;;;;;25.73;18.13;;;12.70;99.90;;;;;;6305232;22;20011;-83
2022/10/20 21:13:52;;;;;;;25.70;17.75;;;12.70;99.90;;;;;;6305273;22;20051;-85
2022/10/20 21:16:27;;;;;;;26.63;19.10;;;12.70;99.90;;;;;;6304771;22;20500;-84
2022/10/20 21:18:55;;;;;;;26.85;19.23;;;12.70;99.90;;;;;;6307260;22;20016;-84
2022/10/20 21:21:29;;;;;;;22.52;16.85;;;12.60;99.90;;;;;;6305837;22;20022;-84
2022/10/20 21:23:57;;;;;;;26.40;16.85;;;12.60;99.90;;;;;;6300610;22;20098;-84
2022/10/20 21:26:23;;;;;;;21.45;16.80;;;12.70;99.90;;;;;;6306738;22;20101;-84
2022/10/20 21:28:49;;;;;;;24.95;18.83;;;12.60;99.90;;;;;;6312470;22;20050;-83
2022/10/20 21:31:19;;;;;;;33.22;19.38;;;12.60;99.90;;;;;;6312552;22;20014;-84
2022/10/20 21:33:48;;;;;;;28.08;18.60;;;12.60;99.90;;;;;;6340002;22;20003;-84
2022/10/20 21:36:16;;;;;;;29.48;18.08;;;12.60;99.90;;;;;;6310089;22;20461;-84
2022/10/20 21:38:42;;;;;;;21.40;16.88;;;12.60;99.90;;;;;;6340182;22;20380;-84
2022/10/20 21:41:11;;;;;;;28.23;18.80;;;12.60;99.90;;;;;;6339777;22;20014;-84
2022/10/20 21:43:39;;;;;;;23.50;17.20;;;12.60;99.90;;;;;;6311774;22;20527;-84
2022/10/20 21:46:12;;;;;;;21.10;16.30;;;12.60;99.90;;;;;;6312310;22;20011;-84
2022/10/20 21:48:38;;;;;;;22.40;16.35;;;12.60;99.90;;;;;;6312707;22;20105;-83
2022/10/20 21:51:13;;;;;;;24.70;16.98;;;12.60;99.90;;;;;;6338910;22;20050;-84
2022/10/20 21:53:39;;;;;;;20.75;15.68;;;12.60;99.90;;;;;;6312406;22;20406;-83
2022/10/20 21:56:05;;;;;;;25.77;17.23;;;12.60;99.90;;;;;;6311346;22;20046;-83
2022/10/20 21:58:32;;;;;;;29.88;18.20;;;12.50;99.90;;;;;;6312289;22;20530;-83
2022/10/20 22:00:58;;;;;;;24.25;19.17;;;12.50;99.90;;;;;;6313827;22;20011;-84
2022/10/20 22:03:23;;;;;;;18.92;14.23;;;12.60;99.90;;;;;;6311539;22;20043;-83
2022/10/20 22:05:49;;;;;;;18.05;14.75;;;12.50;99.90;;;;;;6312580;22;20068;-83
2022/10/20 22:08:15;;;;;;;24.75;16.52;;;12.60;99.90;;;;;;6312067;22;20068;-83
2022/10/20 22:10:40;;;;;;;26.15;18.85;;;12.50;99.90;;;;;;6311395;22;20019;-83
2022/10/20 22:13:06;;;;;;;27.23;18.63;;;12.50;99.90;;;;;;6312367;22;20022;-84
2022/10/20 22:15:36;;;;;;;22.23;16.00;;;12.50;99.90;;;;;;6340104;22;20325;-83
2022/10/20 22:18:02;;;;;;;23.88;17.58;;;12.50;99.90;;;;;;6311286;22;20007;-84
2022/10/20 22:20:28;;;;;;;26.17;17.95;;;12.60;99.90;;;;;;6311977;22;20038;-83
2022/10/20 22:22:53;;;;;;;32.28;19.58;;;12.60;99.90;;;;;;6311139;22;20022;-83
2022/10/20 22:25:19;;;;;;;23.20;15.88;;;12.60;99.90;;;;;;6310770;22;20065;-83
2022/10/20 22:27:45;;;;;;;25.33;18.33;;;12.60;99.90;;;;;;6311910;22;20014;-84
2022/10/20 22:30:11;;;;;;;30.38;19.95;;;12.60;99.90;;;;;;6339041;22;20450;-83
2022/10/20 22:32:37;;;;;;;27.67;18.90;;;12.70;99.90;;;;;;6338844;22;20443;-84
2022/10/20 22:35:03;;;;;;;22.65;16.00;;;12.70;99.90;;;;;;6340183;22;20011;-83
2022/10/20 22:37:29;;;;;;;23.10;17.05;;;12.60;99.90;;;;;;6311000;22;20023;-84
2022/10/20 22:39:54;;;;;;;26.20;18.35;;;12.70;99.90;;;;;;6311116;22;20018;-84
2022/10/20 22:42:20;;;;;;;24.77;18.08;;;12.60;99.90;;;;;;6339695;22;20064;-83
2022/10/20 22:44:46;;;;;;;23.48;15.90;;;12.60;99.90;;;;;;6311955;22;20450;-83
2022/10/20 22:47:12;;;;;;;21.70;16.70;;;12.60;99.90;;;;;;6311135;22;20014;-84
2022/10/20 22:49:38;;;;;;;26.00;17.45;;;12.60;99.90;;;;;;6311539;22;20011;-83
2022/10/20 22:52:03;;;;;;;21.65;16.17;;;12.70;99.90;;;;;;6339299;22;20013;-84
2022/10/20 22:54:29;;;;;;;28.83;19.17;;;12.60;99.90;;;;;;6310496;22;20022;-83
2022/10/20 22:56:55;;;;;;;25.00;17.17;;;12.70;99.90;;;;;;6339903;22;20007;-83
2022/10/20 22:59:20;;;;;;;23.08;17.38;;;12.60;99.90;;;;;;6339274;22;20011;-83
2022/10/20 23:01:46;;;;;;;21.98;16.60;;;12.60;99.90;;;;;;6339974;22;20015;-84
2022/10/20 23:04:12;;;;;;;30.85;19.15;;;12.60;99.90;;;;;;6311521;22;20022;-83
2022/10/20 23:06:40;;;;;;;20.95;15.85;;;12.60;99.90;;;;;;6338958;22;20128;-83
2022/10/20 23:09:06;;;;;;;20.42;16.15;;;12.60;99.90;;;;;;6339592;22;20021;-83
2022/10/20 23:11:32;;;;;;;23.75;17.35;;;12.60;99.90;;;;;;6312109;22;20093;-83
2022/10/20 23:13:58;;;;;;;24.58;17.13;;;12.60;99.90;;;;;;6338270;22;20485;-84
2022/10/20 23:16:26;;;;;;;23.23;16.58;;;12.60;99.90;;;;;;6339524;22;20495;-83
2022/10/20 23:18:52;;;;;;;22.13;17.55;;;12.60;99.90;;;;;;6311511;22;20014;-83
2022/10/20 23:21:18;;;;;;;23.30;16.40;;;12.60;99.90;;;;;;6311185;22;20299;-84
2022/10/20 23:23:44;;;;;;;23.02;15.18;;;12.50;99.90;;;;;;6339556;22;20107;-84
2022/10/20 23:26:10;;;;;;;26.55;19.38;;;12.50;99.90;;;;;;6311287;22;20092;-84
2022/10/20 23:28:37;;;;;;;22.02;16.23;;;12.50;99.90;;;;;;6337865;22;20019;-83
2022/10/20 23:31:12;;;;;;;27.25;18.50;;;12.50;99.90;;;;;;6311513;22;20050;-83
2022/10/20 23:33:39;;;;;;;26.67;18.67;;;12.50;99.90;;;;;;6310878;22;20442;-84
2022/10/20 23:36:05;;;;;;;22.55;15.98;;;12.50;99.90;;;;;;6310655;22;20060;-83
2022/10/20 23:38:31;;;;;;;24.50;17.67;;;12.60;99.90;;;;;;6311464;22;20014;-83
2022/10/20 23:40:57;;;;;;;20.15;14.45;;;12.50;99.90;;;;;;6311514;22;20019;-84
2022/10/20 23:43:23;;;;;;;26.02;17.52;;;12.50;99.90;;;;;;6310029;22;20022;-84
2022/10/20 23:45:55;;;;;;;25.45;18.45;;;12.50;99.90;;;;;;6311383;22;20011;-83
2022/10/20 23:48:24;;;;;;;25.67;17.75;;;12.50;99.90;;;;;;6311000;22;20015;-83
2022/10/20 23:50:56;;;;;;;29.17;18.98;;;12.50;99.90;;;;;;6310823;22;20015;-83
2022/10/20 23:53:28;;;;;;;22.20;16.50;;;12.60;99.90;;;;;;6311137;22;20011;-83
2022/10/20 23:55:59;;;;;;;22.15;16.10;;;12.60;99.90;;;;;;6310679;22;20010;-83
2022/10/20 23:58:37;;;;;;;26.33;16.85;;;12.50;99.90;;;;;;6310940;22;20472;-83
